createdAt,value
2019-04-16T00:00:30.911Z,4.3
2019-04-16T00:01:43.133Z,4.4
2019-04-16T00:02:55.282Z,4.3
2019-04-16T00:04:07.484Z,4.3
2019-04-16T00:05:19.681Z,4.5
2019-04-16T00:06:31.882Z,4.4
2019-04-16T00:07:44.103Z,4.5
2019-04-16T00:08:56.295Z,4.4
2019-04-16T00:10:08.496Z,4.5
2019-04-16T00:11:20.734Z,4.5
2019-04-16T00:12:32.900Z,4.5
2019-04-16T00:13:45.096Z,4.4
2019-04-16T00:14:57.294Z,4.4
2019-04-16T00:16:09.500Z,4.3
2019-04-16T00:17:21.960Z,4.3
2019-04-16T00:18:33.904Z,4.2
2019-04-16T00:19:46.103Z,4.3
2019-04-16T00:20:58.337Z,4.3
2019-04-16T00:22:10.515Z,4.3
2019-04-16T00:23:22.708Z,4.4
2019-04-16T00:24:34.898Z,4.5
2019-04-16T00:25:47.113Z,4.2
2019-04-16T00:26:59.321Z,4.4
2019-04-16T00:28:11.514Z,4.4
2019-04-16T00:29:23.711Z,4.3
2019-04-16T00:30:36.162Z,4.3
2019-04-16T00:31:48.111Z,4.5
2019-04-16T00:33:00.313Z,4.3
2019-04-16T00:34:12.514Z,4.3
2019-04-16T00:35:24.720Z,4.2
2019-04-16T00:36:36.922Z,4.3
2019-04-16T00:37:49.146Z,4.2
2019-04-16T00:39:01.319Z,4.3
2019-04-16T00:40:13.517Z,4.3
2019-04-16T00:41:25.071Z,4.4
2019-04-16T00:42:37.919Z,4.3
2019-04-16T00:43:50.119Z,4.3
2019-04-16T00:45:02.953Z,4.4
2019-04-16T00:46:14.920Z,4.4
2019-04-16T00:47:26.727Z,4.4
2019-04-16T00:48:38.935Z,4.3
2019-04-16T00:49:51.129Z,4.2
2019-04-16T00:51:03.340Z,4.3
2019-04-16T00:52:15.532Z,4.4
2019-04-16T00:53:27.733Z,4.3
2019-04-16T00:54:39.939Z,4.3
2019-04-16T00:55:52.143Z,4.4
2019-04-16T00:57:04.330Z,4.3
2019-04-16T00:58:16.539Z,4.3
2019-04-16T00:59:28.743Z,4.2
2019-04-16T01:00:40.940Z,4.4
2019-04-16T01:01:53.144Z,4.3
2019-04-16T01:03:05.727Z,4.2
2019-04-16T01:04:17.547Z,4.3
2019-04-16T01:05:29.748Z,4.2
2019-04-16T01:06:41.949Z,4.3
2019-04-16T01:07:54.150Z,4.3
2019-04-16T01:09:06.345Z,4.4
2019-04-16T01:10:18.541Z,4.3
2019-04-16T01:11:30.747Z,4.3
2019-04-16T01:12:42.947Z,4.4
2019-04-16T01:13:55.151Z,4.4
2019-04-16T01:15:07.034Z,4.3
2019-04-16T01:16:19.529Z,4.4
2019-04-16T01:17:31.733Z,4.4
2019-04-16T01:18:43.941Z,4.3
2019-04-16T01:19:56.477Z,4.4
2019-04-16T01:21:08.033Z,4.3
2019-04-16T01:23:32.735Z,4.3
2019-04-16T01:24:44.935Z,4.3
2019-04-16T01:26:00.931Z,4.1
2019-04-16T01:27:09.335Z,4.2
2019-04-16T01:28:21.534Z,4.2
2019-04-16T01:29:33.735Z,4.1
2019-04-16T01:30:45.944Z,4.1
2019-04-16T01:31:58.136Z,4.1
2019-04-16T01:33:10.327Z,4.2
2019-04-16T01:34:22.559Z,4.1
2019-04-16T01:35:34.756Z,4.1
2019-04-16T01:36:46.934Z,4.1
2019-04-16T01:37:59.124Z,4.1
2019-04-16T01:39:11.318Z,4.1
2019-04-16T01:40:23.524Z,4.1
2019-04-16T01:41:35.720Z,4.1
2019-04-16T01:42:47.915Z,4.1
2019-04-16T01:44:00.122Z,4.1
2019-04-16T01:45:12.328Z,4.2
2019-04-16T01:46:24.524Z,4.2
2019-04-16T01:47:36.724Z,3.9
2019-04-16T01:48:48.925Z,4.1
2019-04-16T01:50:01.124Z,4.1
2019-04-16T01:51:13.321Z,4
2019-04-16T01:52:25.052Z,4.1
2019-04-16T01:53:37.720Z,4.1
2019-04-16T01:54:49.922Z,4.1
2019-04-16T01:56:02.132Z,4.1
2019-04-16T01:57:14.319Z,4.1
2019-04-16T01:58:26.052Z,4
2019-04-16T01:59:38.726Z,4.3
2019-04-16T02:00:50.910Z,4.1
2019-04-16T02:02:03.132Z,4.3
2019-04-16T02:03:15.310Z,4.1
2019-04-16T02:04:27.513Z,4.1
2019-04-16T02:05:39.713Z,4
2019-04-16T02:06:51.910Z,4.1
2019-04-16T02:08:04.011Z,4
2019-04-16T02:09:16.308Z,4.1
2019-04-16T02:10:28.050Z,4.1
2019-04-16T02:11:40.704Z,3.9
2019-04-16T02:14:05.108Z,4
2019-04-16T02:15:17.309Z,4
2019-04-16T02:16:29.501Z,3.9
2019-04-16T02:17:41.696Z,3.9
2019-04-16T02:18:53.901Z,4
2019-04-16T02:20:06.106Z,4
2019-04-16T02:21:18.299Z,4
2019-04-16T02:22:30.496Z,4
2019-04-16T02:23:42.700Z,4.1
2019-04-16T02:24:54.893Z,4.2
2019-04-16T02:26:07.098Z,4
2019-04-16T02:27:19.299Z,4.1
2019-04-16T02:28:31.502Z,4
2019-04-16T02:29:43.699Z,3.9
2019-04-16T02:30:55.899Z,4
2019-04-16T02:32:08.008Z,3.9
2019-04-16T02:33:20.285Z,3.9
2019-04-16T02:34:32.481Z,3.7
2019-04-16T02:35:44.068Z,3.9
2019-04-16T02:38:09.088Z,3.9
2019-04-16T02:39:21.288Z,3.9
2019-04-16T02:40:33.484Z,3.9
2019-04-16T02:41:45.687Z,3.9
2019-04-16T02:42:57.885Z,4
2019-04-16T02:44:10.088Z,3.9
2019-04-16T02:45:22.288Z,3.9
2019-04-16T02:46:34.486Z,3.9
2019-04-16T02:47:46.680Z,3.8
2019-04-16T02:48:58.882Z,3.8
2019-04-16T02:50:11.074Z,3.9
2019-04-16T02:51:23.529Z,3.8
2019-04-16T02:52:35.476Z,3.7
2019-04-16T02:53:47.674Z,3.7
2019-04-16T02:54:59.876Z,3.7
2019-04-16T02:56:12.094Z,3.7
2019-04-16T02:57:24.268Z,3.6
2019-04-16T02:58:36.479Z,3.7
2019-04-16T02:59:48.674Z,3.6
2019-04-16T03:01:00.876Z,3.9
2019-04-16T03:02:13.073Z,3.7
2019-04-16T03:03:25.283Z,3.9
2019-04-16T03:04:37.466Z,3.8
2019-04-16T03:05:49.670Z,3.7
2019-04-16T03:07:01.871Z,3.7
2019-04-16T03:08:14.006Z,3.7
2019-04-16T03:09:26.272Z,3.6
2019-04-16T03:10:38.464Z,3.7
2019-04-16T03:11:50.066Z,3.5
2019-04-16T03:13:02.864Z,3.6
2019-04-16T03:14:15.055Z,3.5
2019-04-16T03:15:27.260Z,3.6
2019-04-16T03:16:39.467Z,3.6
2019-04-16T03:17:51.660Z,3.7
2019-04-16T03:19:03.860Z,3.6
2019-04-16T03:20:16.060Z,3.4
2019-04-16T03:21:28.257Z,3.6
2019-04-16T03:22:40.463Z,3.6
2019-04-16T03:23:52.660Z,3.7
2019-04-16T03:25:04.858Z,3.8
2019-04-16T03:26:17.056Z,3.5
2019-04-16T03:27:29.256Z,3.6
2019-04-16T03:28:41.464Z,3.7
2019-04-16T03:29:53.723Z,3.6
2019-04-16T03:31:05.855Z,3.6
2019-04-16T03:32:18.057Z,3.6
2019-04-16T03:33:30.260Z,3.6
2019-04-16T03:34:42.457Z,3.7
2019-04-16T03:35:54.657Z,3.5
2019-04-16T03:37:06.862Z,3.5
2019-04-16T03:38:19.051Z,3.6
2019-04-16T03:39:31.261Z,3.5
2019-04-16T03:40:43.460Z,3.4
2019-04-16T03:41:55.659Z,3.5
2019-04-16T03:43:07.859Z,3.6
2019-04-16T03:44:20.071Z,3.4
2019-04-16T03:45:32.262Z,3.4
2019-04-16T03:46:44.447Z,3.4
2019-04-16T03:47:56.645Z,3.4
2019-04-16T03:49:08.849Z,3.4
2019-04-16T03:50:21.041Z,3.4
2019-04-16T03:51:33.249Z,3.4
2019-04-16T03:52:45.445Z,3.4
2019-04-16T03:53:57.641Z,3.3
2019-04-16T03:55:09.849Z,3.4
2019-04-16T03:56:22.047Z,3.5
2019-04-16T03:57:34.249Z,3.4
2019-04-16T03:58:46.449Z,3.5
2019-04-16T03:59:58.639Z,3.5
2019-04-16T04:01:10.842Z,3.5
2019-04-16T04:02:23.045Z,3.5
2019-04-16T04:03:35.245Z,3.6
2019-04-16T04:04:47.448Z,3.5
2019-04-16T04:05:59.645Z,3.5
2019-04-16T04:07:11.840Z,3.5
2019-04-16T04:08:24.004Z,3.6
2019-04-16T04:09:36.244Z,3.4
2019-04-16T04:10:48.443Z,3.5
2019-04-16T04:12:00.652Z,3.5
2019-04-16T04:13:12.844Z,3.4
2019-04-16T04:14:25.043Z,3.4
2019-04-16T04:15:37.252Z,3.5
2019-04-16T04:16:49.439Z,3.5
2019-04-16T04:18:01.643Z,3.5
2019-04-16T04:19:13.838Z,3.4
2019-04-16T04:20:26.033Z,3.4
2019-04-16T04:21:38.257Z,3.4
2019-04-16T04:22:50.425Z,3.4
2019-04-16T04:24:02.664Z,3.3
2019-04-16T04:25:14.831Z,3.5
2019-04-16T04:26:27.034Z,3.4
2019-04-16T04:27:39.238Z,3.5
2019-04-16T04:28:51.427Z,3.6
2019-04-16T04:30:03.639Z,3.5
2019-04-16T04:31:15.832Z,3.5
2019-04-16T04:32:28.032Z,3.6
2019-04-16T04:33:40.233Z,3.7
2019-04-16T04:34:52.433Z,3.6
2019-04-16T04:36:04.634Z,3.8
2019-04-16T04:37:16.829Z,3.6
2019-04-16T04:38:29.030Z,3.8
2019-04-16T04:40:53.449Z,3.8
2019-04-16T04:42:05.628Z,3.8
2019-04-16T04:43:17.832Z,3.8
2019-04-16T04:44:30.029Z,3.7
2019-04-16T04:45:42.609Z,3.9
2019-04-16T04:46:54.433Z,3.7
2019-04-16T04:48:06.629Z,3.9
2019-04-16T04:49:18.831Z,3.8
2019-04-16T04:50:31.027Z,3.8
2019-04-16T04:51:43.225Z,3.8
2019-04-16T04:52:55.418Z,4
2019-04-16T04:54:07.618Z,4
2019-04-16T04:55:19.818Z,4
2019-04-16T04:56:32.021Z,4.1
2019-04-16T04:57:44.219Z,4.2
2019-04-16T04:58:56.468Z,4
2019-04-16T05:00:08.621Z,4.1
2019-04-16T05:01:20.816Z,4.3
2019-04-16T05:02:33.020Z,4.1
2019-04-16T05:03:45.220Z,4.4
2019-04-16T05:04:57.802Z,4.3
2019-04-16T05:06:09.646Z,4.4
2019-04-16T05:07:21.818Z,4.4
2019-04-16T05:08:34.012Z,4.5
2019-04-16T05:09:46.220Z,4.5
2019-04-16T05:10:58.426Z,4.7
2019-04-16T05:12:10.623Z,4.7
2019-04-16T05:13:22.818Z,4.8
2019-04-16T05:14:35.018Z,4.8
2019-04-16T05:15:47.223Z,5
2019-04-16T05:16:59.413Z,4.8
2019-04-16T05:18:11.609Z,5
2019-04-16T05:19:23.804Z,5.1
2019-04-16T05:20:36.006Z,5.1
2019-04-16T05:21:48.200Z,5.3
2019-04-16T05:23:00.408Z,5.3
2019-04-16T05:24:12.602Z,5.2
2019-04-16T05:25:24.879Z,5.3
2019-04-16T05:26:37.006Z,5.3
2019-04-16T05:27:49.200Z,5.3
2019-04-16T05:29:01.409Z,5.2
2019-04-16T05:30:13.060Z,5.3
2019-04-16T05:31:25.802Z,5.3
2019-04-16T05:32:38.002Z,5.5
2019-04-16T05:33:50.204Z,5.3
2019-04-16T05:35:02.403Z,5.4
2019-04-16T05:36:14.633Z,5.5
2019-04-16T05:37:26.788Z,5.4
2019-04-16T05:38:38.993Z,5.5
2019-04-16T05:39:51.192Z,5.5
2019-04-16T05:41:03.438Z,5.6
2019-04-16T05:42:15.592Z,5.7
2019-04-16T05:43:27.794Z,5.7
2019-04-16T05:44:39.988Z,5.7
2019-04-16T05:45:52.194Z,5.5
2019-04-16T05:47:04.393Z,5.4
2019-04-16T05:48:16.590Z,5.5
2019-04-16T05:49:28.793Z,5.5
2019-04-16T05:50:40.989Z,5.4
2019-04-16T05:51:53.019Z,5.5
2019-04-16T05:53:05.391Z,5.5
2019-04-16T05:54:17.058Z,5.4
2019-04-16T05:55:29.832Z,5.5
2019-04-16T05:56:41.992Z,5.6
2019-04-16T05:57:54.190Z,5.8
2019-04-16T05:59:06.418Z,5.7
2019-04-16T06:00:18.057Z,5.7
2019-04-16T06:01:30.778Z,5.5
2019-04-16T06:02:42.098Z,5.3
2019-04-16T06:03:55.234Z,5.2
2019-04-16T06:05:07.041Z,5.8
2019-04-16T06:06:19.581Z,5.9
2019-04-16T06:07:31.917Z,5.9
2019-04-16T06:08:43.979Z,5.8
2019-04-16T06:09:56.180Z,6
2019-04-16T06:11:08.381Z,6
2019-04-16T06:12:20.580Z,5.8
2019-04-16T06:13:32.773Z,5.8
2019-04-16T06:14:44.981Z,6
2019-04-16T06:15:57.177Z,5.7
2019-04-16T06:17:09.360Z,5.7
2019-04-16T06:18:21.566Z,6
2019-04-16T06:19:33.767Z,6
2019-04-16T06:20:45.976Z,6.2
2019-04-16T06:21:58.017Z,6.4
2019-04-16T06:23:10.364Z,6.3
2019-04-16T06:24:22.565Z,6.2
2019-04-16T06:25:34.767Z,6
2019-04-16T06:26:46.974Z,5.8
2019-04-16T06:27:59.165Z,5.8
2019-04-16T06:29:11.367Z,5.8
2019-04-16T06:30:23.564Z,5.9
2019-04-16T06:31:35.775Z,6.2
2019-04-16T06:32:47.967Z,6.1
2019-04-16T06:34:00.161Z,6.2
2019-04-16T06:35:12.359Z,6.3
2019-04-16T06:36:24.551Z,6.1
2019-04-16T06:37:36.755Z,6.2
2019-04-16T06:40:01.405Z,6.2
2019-04-16T06:41:13.356Z,6.4
2019-04-16T06:42:25.556Z,6.1
2019-04-16T06:43:37.760Z,6.4
2019-04-16T06:44:49.960Z,6.5
2019-04-16T06:46:02.151Z,6.6
2019-04-16T06:47:14.355Z,6.6
2019-04-16T06:48:26.555Z,6.7
2019-04-16T06:49:38.753Z,6.4
2019-04-16T06:50:50.945Z,6.5
2019-04-16T06:52:03.153Z,6.7
2019-04-16T06:53:15.337Z,6.8
2019-04-16T06:54:27.543Z,6.9
2019-04-16T06:55:39.743Z,6.9
2019-04-16T06:56:51.943Z,6.5
2019-04-16T06:58:04.141Z,6.7
2019-04-16T06:59:16.341Z,6.6
2019-04-16T07:00:28.544Z,6.6
2019-04-16T07:01:40.759Z,6.6
2019-04-16T07:02:52.093Z,6.5
2019-04-16T07:04:05.141Z,6.5
2019-04-16T07:05:17.349Z,6.8
2019-04-16T07:06:29.544Z,7
2019-04-16T07:07:41.073Z,7
2019-04-16T07:08:53.967Z,7.2
2019-04-16T07:10:06.131Z,7.1
2019-04-16T07:11:18.333Z,7.2
2019-04-16T07:12:30.533Z,7.4
2019-04-16T07:13:42.729Z,7.6
2019-04-16T07:14:54.932Z,7.6
2019-04-16T07:16:07.125Z,7.7
2019-04-16T07:17:19.332Z,7.3
2019-04-16T07:18:31.530Z,6.9
2019-04-16T07:19:43.730Z,6.9
2019-04-16T07:20:55.931Z,6.7
2019-04-16T07:22:08.171Z,6.6
2019-04-16T07:23:20.319Z,6.5
2019-04-16T07:24:32.520Z,6.4
2019-04-16T07:25:44.720Z,6.4
2019-04-16T07:26:56.924Z,6.3
2019-04-16T07:28:09.121Z,6.4
2019-04-16T07:29:21.321Z,6.4
2019-04-16T07:30:33.520Z,6.7
2019-04-16T07:31:45.713Z,6.5
2019-04-16T07:32:57.920Z,6.5
2019-04-16T07:34:10.124Z,6.6
2019-04-16T07:35:22.324Z,6.9
2019-04-16T07:36:34.517Z,6.8
2019-04-16T07:37:46.714Z,7.1
2019-04-16T07:38:58.090Z,7
2019-04-16T07:40:11.113Z,7.1
2019-04-16T07:41:23.308Z,7
2019-04-16T07:42:35.516Z,6.8
2019-04-16T07:43:47.706Z,6.8
2019-04-16T07:44:59.909Z,6.8
2019-04-16T07:46:12.016Z,6.7
2019-04-16T07:47:24.318Z,6.6
2019-04-16T07:48:36.051Z,6.6
2019-04-16T07:49:48.708Z,6.4
2019-04-16T07:51:00.894Z,6.5
2019-04-16T07:52:13.101Z,6.4
2019-04-16T07:53:25.294Z,6.6
2019-04-16T07:54:37.492Z,6.9
2019-04-16T07:55:49.700Z,6.7
2019-04-16T07:57:01.910Z,6.8
2019-04-16T07:58:14.096Z,6.8
2019-04-16T07:59:26.300Z,7.3
2019-04-16T08:00:38.495Z,7.3
2019-04-16T08:01:50.697Z,7.1
2019-04-16T08:03:02.089Z,7.1
2019-04-16T08:04:15.008Z,7.2
2019-04-16T08:05:27.285Z,7.2
2019-04-16T08:06:39.486Z,7.1
2019-04-16T08:07:51.692Z,7
2019-04-16T08:09:03.884Z,7.4
2019-04-16T08:10:16.093Z,7.5
2019-04-16T08:11:28.280Z,7.3
2019-04-16T08:12:40.485Z,7.3
2019-04-16T08:13:52.677Z,7.7
2019-04-16T08:15:04.886Z,7.7
2019-04-16T08:16:17.125Z,7.5
2019-04-16T08:17:29.271Z,7.4
2019-04-16T08:18:41.472Z,7.4
2019-04-16T08:19:53.676Z,7.7
2019-04-16T08:21:05.924Z,7.6
2019-04-16T08:22:18.086Z,7.2
2019-04-16T08:23:30.303Z,7.6
2019-04-16T08:24:42.470Z,8
2019-04-16T08:25:54.674Z,7.9
2019-04-16T08:27:06.871Z,7.9
2019-04-16T08:28:19.072Z,7.7
2019-04-16T08:29:31.275Z,8.3
2019-04-16T08:30:43.466Z,8.3
2019-04-16T08:31:55.683Z,7.9
2019-04-16T08:33:07.863Z,7.9
2019-04-16T08:34:20.054Z,7.8
2019-04-16T08:35:32.262Z,8
2019-04-16T08:36:44.746Z,8.1
2019-04-16T08:37:56.665Z,8.5
2019-04-16T08:39:08.860Z,8.4
2019-04-16T08:40:21.054Z,8.4
2019-04-16T08:41:33.260Z,7.9
2019-04-16T08:42:45.460Z,7.9
2019-04-16T08:43:57.662Z,8
2019-04-16T08:45:09.892Z,8.2
2019-04-16T08:46:22.054Z,8.1
2019-04-16T08:47:34.279Z,8.2
2019-04-16T08:48:46.455Z,8.2
2019-04-16T08:49:58.650Z,7.8
2019-04-16T08:51:10.976Z,7.9
2019-04-16T08:52:23.074Z,8.1
2019-04-16T08:53:35.247Z,8.5
2019-04-16T08:54:47.451Z,8.7
2019-04-16T08:55:59.648Z,8.8
2019-04-16T08:57:11.940Z,8.5
2019-04-16T08:58:24.004Z,8.1
2019-04-16T08:59:36.248Z,7.9
2019-04-16T09:00:48.452Z,8.1
2019-04-16T09:02:00.650Z,8.1
2019-04-16T09:03:12.855Z,8.5
2019-04-16T09:04:25.040Z,8.6
2019-04-16T09:05:37.245Z,8.8
2019-04-16T09:06:49.437Z,8.9
2019-04-16T09:08:01.637Z,8.9
2019-04-16T09:09:13.836Z,8.9
2019-04-16T09:10:26.305Z,8.6
2019-04-16T09:11:38.240Z,8.1
2019-04-16T09:12:50.436Z,8
2019-04-16T09:14:02.639Z,7.9
2019-04-16T09:15:14.836Z,8.1
2019-04-16T09:16:27.036Z,8.3
2019-04-16T09:17:39.235Z,8.5
2019-04-16T09:18:51.441Z,9
2019-04-16T09:20:03.628Z,9.3
2019-04-16T09:21:15.839Z,9.3
2019-04-16T09:22:28.019Z,9.6
2019-04-16T09:23:40.022Z,9.6
2019-04-16T09:24:52.425Z,9.1
2019-04-16T09:26:04.634Z,8.8
2019-04-16T09:27:16.829Z,8.8
2019-04-16T09:28:29.024Z,8.3
2019-04-16T09:29:41.234Z,8.3
2019-04-16T09:30:53.419Z,8.7
2019-04-16T09:32:05.061Z,8.6
2019-04-16T09:33:17.823Z,8.4
2019-04-16T09:34:30.026Z,8
2019-04-16T09:35:42.227Z,7.7
2019-04-16T09:36:54.425Z,7.7
2019-04-16T09:38:06.610Z,7.9
2019-04-16T09:39:18.819Z,8.3
2019-04-16T09:40:31.001Z,8.7
2019-04-16T09:41:43.212Z,8.9
2019-04-16T09:42:55.418Z,9.2
2019-04-16T09:44:07.622Z,9.1
2019-04-16T09:45:19.807Z,9.5
2019-04-16T09:46:32.013Z,9.8
2019-04-16T09:47:44.214Z,9.6
2019-04-16T09:48:56.415Z,9.6
2019-04-16T09:50:08.617Z,9.7
2019-04-16T09:51:20.798Z,9.4
2019-04-16T09:52:33.002Z,9.6
2019-04-16T09:53:45.203Z,9.2
2019-04-16T09:54:57.040Z,9.1
2019-04-16T09:56:09.615Z,8.5
2019-04-16T09:57:21.799Z,8.3
2019-04-16T09:58:34.003Z,8.7
2019-04-16T09:59:46.020Z,9.2
2019-04-16T10:00:58.398Z,9.4
2019-04-16T10:02:10.599Z,9.3
2019-04-16T10:03:22.800Z,8.9
2019-04-16T10:04:35.006Z,8.3
2019-04-16T10:05:47.232Z,8.2
2019-04-16T10:06:59.402Z,8.7
2019-04-16T10:08:11.594Z,8.8
2019-04-16T10:09:23.792Z,8.6
2019-04-16T10:10:35.990Z,8.6
2019-04-16T10:11:48.190Z,8.2
2019-04-16T10:13:00.388Z,8.6
2019-04-16T10:14:12.586Z,8.6
2019-04-16T10:15:24.862Z,8.9
2019-04-16T10:16:36.992Z,9.1
2019-04-16T10:17:49.184Z,9.4
2019-04-16T10:19:01.390Z,9.2
2019-04-16T10:20:13.595Z,9.5
2019-04-16T10:21:25.807Z,9.4
2019-04-16T10:22:37.099Z,9.2
2019-04-16T10:23:50.181Z,8.9
2019-04-16T10:25:02.380Z,8.7
2019-04-16T10:26:14.578Z,8.8
2019-04-16T10:27:26.780Z,9.1
2019-04-16T10:28:38.985Z,9.5
2019-04-16T10:29:51.184Z,9.2
2019-04-16T10:31:03.378Z,9.3
2019-04-16T10:32:15.579Z,9.2
2019-04-16T10:33:27.779Z,9.4
2019-04-16T10:34:39.098Z,9.6
2019-04-16T10:35:52.176Z,9.6
2019-04-16T10:37:04.377Z,9.5
2019-04-16T10:38:16.581Z,9.7
2019-04-16T10:39:28.778Z,9.4
2019-04-16T10:40:40.981Z,9.1
2019-04-16T10:41:53.017Z,9.2
2019-04-16T10:43:05.385Z,9.4
2019-04-16T10:44:17.576Z,9.5
2019-04-16T10:45:29.776Z,9.9
2019-04-16T10:46:41.981Z,9.8
2019-04-16T10:47:54.178Z,9.6
2019-04-16T10:49:06.463Z,9.6
2019-04-16T10:50:18.580Z,9.8
2019-04-16T10:51:30.788Z,10
2019-04-16T10:52:42.977Z,9.8
2019-04-16T10:53:55.237Z,10
2019-04-16T10:55:07.376Z,10
2019-04-16T10:56:19.057Z,9.7
2019-04-16T10:57:31.788Z,10
2019-04-16T10:58:43.098Z,10.1
2019-04-16T10:59:56.181Z,9.8
2019-04-16T11:01:08.387Z,9.8
2019-04-16T11:02:20.587Z,9.7
2019-04-16T11:03:32.788Z,9.8
2019-04-16T11:04:45.020Z,9.7
2019-04-16T11:05:57.179Z,9.9
2019-04-16T11:07:09.392Z,10
2019-04-16T11:08:21.594Z,9.9
2019-04-16T11:09:33.781Z,9.8
2019-04-16T11:10:46.008Z,9.9
2019-04-16T11:11:58.188Z,9.9
2019-04-16T11:13:10.389Z,9.7
2019-04-16T11:14:22.596Z,9.7
2019-04-16T11:15:34.818Z,9.6
2019-04-16T11:16:46.999Z,9.6
2019-04-16T11:17:59.195Z,9.8
2019-04-16T11:19:11.039Z,9.9
2019-04-16T11:20:23.592Z,10
2019-04-16T11:21:35.794Z,10
2019-04-16T11:22:47.989Z,10.2
2019-04-16T11:24:00.196Z,10.1
2019-04-16T11:25:12.428Z,9.9
2019-04-16T11:26:24.618Z,9.8
2019-04-16T11:27:36.802Z,9.9
2019-04-16T11:28:49.001Z,9.8
2019-04-16T11:30:01.204Z,9.6
2019-04-16T11:31:13.406Z,9.8
2019-04-16T11:32:25.598Z,9.8
2019-04-16T11:33:37.805Z,9.9
2019-04-16T11:34:50.001Z,9.7
2019-04-16T11:36:02.020Z,9.8
2019-04-16T11:37:14.402Z,10.1
2019-04-16T11:38:26.600Z,10.2
2019-04-16T11:39:38.082Z,10.3
2019-04-16T11:40:51.020Z,9.9
2019-04-16T11:42:03.214Z,10
2019-04-16T11:43:15.419Z,10
2019-04-16T11:44:27.000Z,10.1
2019-04-16T11:45:39.808Z,10.1
2019-04-16T11:46:52.011Z,10.3
2019-04-16T11:48:04.214Z,10.3
2019-04-16T11:49:16.912Z,10.3
2019-04-16T11:50:28.623Z,10.2
2019-04-16T11:51:40.819Z,10.2
2019-04-16T11:52:53.049Z,10.2
2019-04-16T11:54:05.218Z,10.1
2019-04-16T11:55:17.043Z,10.5
2019-04-16T11:56:29.623Z,10.4
2019-04-16T11:57:41.822Z,10.2
2019-04-16T11:58:54.023Z,10.2
2019-04-16T12:00:06.228Z,10.1
2019-04-16T12:01:18.418Z,10.1
2019-04-16T12:02:30.643Z,10.2
2019-04-16T12:03:42.835Z,10.1
2019-04-16T12:04:55.033Z,10.1
2019-04-16T12:06:07.233Z,10.1
2019-04-16T12:07:19.043Z,10.1
2019-04-16T12:08:31.067Z,10.2
2019-04-16T12:09:43.083Z,10.1
2019-04-16T12:10:56.037Z,10.1
2019-04-16T12:12:08.225Z,10.2
2019-04-16T12:13:20.045Z,10.1
2019-04-16T12:14:32.642Z,10.1
2019-04-16T12:15:44.843Z,10.3
2019-04-16T12:16:57.055Z,10.3
2019-04-16T12:18:09.235Z,10.5
2019-04-16T12:19:21.439Z,10.5
2019-04-16T12:20:33.653Z,10.6
2019-04-16T12:21:45.841Z,10.4
2019-04-16T12:22:58.041Z,10.3
2019-04-16T12:24:10.242Z,10
2019-04-16T12:25:22.481Z,10
2019-04-16T12:26:34.653Z,10.3
2019-04-16T12:27:46.859Z,10.2
2019-04-16T12:28:59.049Z,10.3
2019-04-16T12:30:11.251Z,10.3
2019-04-16T12:31:23.453Z,10.1
2019-04-16T12:32:35.065Z,10.1
2019-04-16T12:33:47.968Z,9.9
2019-04-16T12:35:00.047Z,10.2
2019-04-16T12:36:12.264Z,10.1
2019-04-16T12:37:24.463Z,10.3
2019-04-16T12:38:36.675Z,10.3
2019-04-16T12:39:48.859Z,10.3
2019-04-16T12:41:01.059Z,10.3
2019-04-16T12:42:13.260Z,10.3
2019-04-16T12:43:25.464Z,10.3
2019-04-16T12:44:37.662Z,10.4
2019-04-16T12:45:49.861Z,10.3
2019-04-16T12:47:02.075Z,10.4
2019-04-16T12:48:14.265Z,10.5
2019-04-16T12:49:26.473Z,10.3
2019-04-16T12:50:38.672Z,10.3
2019-04-16T12:51:50.865Z,10.3
2019-04-16T12:53:03.071Z,10.3
2019-04-16T12:54:15.271Z,10.1
2019-04-16T12:55:27.468Z,9.9
2019-04-16T12:56:39.672Z,10.1
2019-04-16T12:57:51.877Z,10.3
2019-04-16T12:59:04.080Z,10.3
2019-04-16T13:00:16.281Z,10.5
2019-04-16T13:01:28.480Z,10.5
2019-04-16T13:02:40.683Z,10.4
2019-04-16T13:03:52.882Z,10.5
2019-04-16T13:05:05.074Z,10.4
2019-04-16T13:06:17.285Z,10.5
2019-04-16T13:07:29.483Z,10.3
2019-04-16T13:08:41.674Z,10.5
2019-04-16T13:09:53.088Z,10.5
2019-04-16T13:11:06.095Z,10.5
2019-04-16T13:12:18.290Z,10.6
2019-04-16T13:13:30.490Z,10.6
2019-04-16T13:14:42.684Z,10.7
2019-04-16T13:15:54.886Z,10.5
2019-04-16T13:17:07.092Z,10.4
2019-04-16T13:18:19.290Z,10.4
2019-04-16T13:19:31.487Z,10.3
2019-04-16T13:20:43.699Z,10.4
2019-04-16T13:23:08.101Z,10.5
2019-04-16T13:24:20.298Z,10.5
2019-04-16T13:25:32.501Z,10.4
2019-04-16T13:26:44.706Z,10.4
2019-04-16T13:27:57.153Z,10.5
2019-04-16T13:29:09.010Z,10.6
2019-04-16T13:30:21.296Z,10.5
2019-04-16T13:31:33.517Z,10.7
2019-04-16T13:32:45.071Z,10.6
2019-04-16T13:33:57.918Z,10.8
2019-04-16T13:35:10.110Z,10.8
2019-04-16T13:36:22.308Z,10.7
2019-04-16T13:37:34.505Z,10.7
2019-04-16T13:38:46.071Z,10.4
2019-04-16T13:39:58.940Z,10.5
2019-04-16T13:41:11.113Z,10.5
2019-04-16T13:42:23.032Z,10.5
2019-04-16T13:43:35.542Z,10.4
2019-04-16T13:44:47.712Z,10.3
2019-04-16T13:45:59.917Z,10.2
2019-04-16T13:47:12.120Z,10.3
2019-04-16T13:48:24.332Z,10.3
2019-04-16T13:49:36.523Z,10.3
2019-04-16T13:50:48.744Z,10.2
2019-04-16T13:52:00.920Z,10.1
2019-04-16T13:53:13.129Z,10.1
2019-04-16T13:54:25.327Z,10.3
2019-04-16T13:55:37.526Z,10.2
2019-04-16T13:56:49.728Z,10.3
2019-04-16T13:58:01.930Z,10.3
2019-04-16T13:59:14.128Z,10.3
2019-04-16T14:00:26.320Z,10.3
2019-04-16T14:01:38.530Z,10.3
2019-04-16T14:02:50.731Z,10.3
2019-04-16T14:04:02.936Z,10.3
2019-04-16T14:05:15.014Z,10.3
2019-04-16T14:06:27.343Z,10.1
2019-04-16T14:07:39.543Z,10.2
2019-04-16T14:08:51.736Z,10.3
2019-04-16T14:10:03.939Z,10.2
2019-04-16T14:11:16.152Z,10.4
2019-04-16T14:12:28.339Z,10.3
2019-04-16T14:13:40.532Z,10.4
2019-04-16T14:14:52.748Z,10.2
2019-04-16T14:16:04.965Z,10.2
2019-04-16T14:17:17.141Z,10.3
2019-04-16T14:18:29.369Z,10.3
2019-04-16T14:19:41.054Z,10.4
2019-04-16T14:20:53.747Z,10.4
2019-04-16T14:22:05.949Z,10.4
2019-04-16T14:23:18.152Z,10.5
2019-04-16T14:24:30.348Z,10.7
2019-04-16T14:25:42.558Z,10.6
2019-04-16T14:26:54.952Z,10.5
2019-04-16T14:28:06.959Z,10.6
2019-04-16T14:29:19.156Z,10.6
2019-04-16T14:30:31.354Z,10.6
2019-04-16T14:31:43.556Z,10.7
2019-04-16T14:32:55.762Z,10.7
2019-04-16T14:34:07.959Z,10.6
2019-04-16T14:35:20.163Z,10.6
2019-04-16T14:36:32.355Z,10.5
2019-04-16T14:37:44.572Z,10.4
2019-04-16T14:38:56.771Z,10.3
2019-04-16T14:40:08.965Z,10.3
2019-04-16T14:41:21.263Z,10.3
2019-04-16T14:42:33.368Z,10.3
2019-04-16T14:43:45.057Z,10.1
2019-04-16T14:44:57.768Z,10.1
2019-04-16T14:46:09.965Z,10
2019-04-16T14:47:22.167Z,10.1
2019-04-16T14:48:34.370Z,10
2019-04-16T14:49:46.570Z,10.1
2019-04-16T14:50:58.077Z,10.1
2019-04-16T14:52:10.980Z,10.3
2019-04-16T14:53:23.173Z,10.2
2019-04-16T14:54:35.381Z,10.2
2019-04-16T14:55:47.580Z,10.2
2019-04-16T14:56:59.793Z,10.2
2019-04-16T14:58:11.981Z,10.2
2019-04-16T14:59:24.173Z,10.1
2019-04-16T15:00:36.381Z,10.1
2019-04-16T15:01:48.588Z,10.2
2019-04-16T15:03:00.784Z,10
2019-04-16T15:04:12.990Z,10.1
2019-04-16T15:05:25.190Z,10
2019-04-16T15:06:37.040Z,10.1
2019-04-16T15:07:49.587Z,10
2019-04-16T15:09:01.785Z,10.2
2019-04-16T15:10:13.098Z,10.2
2019-04-16T15:11:26.191Z,10.3
2019-04-16T15:12:38.400Z,10.2
2019-04-16T15:13:50.608Z,10.1
2019-04-16T15:15:02.799Z,10.1
2019-04-16T15:16:14.998Z,10.1
2019-04-16T15:17:27.201Z,10
2019-04-16T15:18:39.401Z,10
2019-04-16T15:19:51.601Z,10
2019-04-16T15:21:03.797Z,10
2019-04-16T15:22:15.995Z,9.9
2019-04-16T15:23:28.230Z,10
2019-04-16T15:24:40.410Z,9.9
2019-04-16T15:25:52.614Z,9.9
2019-04-16T15:27:04.813Z,9.9
2019-04-16T15:28:17.004Z,10
2019-04-16T15:29:29.210Z,9.9
2019-04-16T15:30:41.407Z,9.9
2019-04-16T15:31:53.606Z,9.9
2019-04-16T15:33:05.823Z,9.8
2019-04-16T15:34:18.009Z,9.9
2019-04-16T15:35:30.208Z,9.9
2019-04-16T15:36:42.608Z,9.7
2019-04-16T15:37:54.623Z,9.9
2019-04-16T15:39:06.823Z,9.7
2019-04-16T15:40:19.025Z,9.7
2019-04-16T15:41:31.312Z,9.8
2019-04-16T15:42:43.454Z,9.6
2019-04-16T15:43:55.617Z,9.6
2019-04-16T15:45:07.814Z,9.6
2019-04-16T15:46:20.024Z,9.7
2019-04-16T15:47:32.221Z,9.6
2019-04-16T15:48:44.449Z,9.6
2019-04-16T15:49:56.637Z,9.6
2019-04-16T15:51:08.825Z,9.6
2019-04-16T15:52:21.002Z,9.6
2019-04-16T15:53:33.231Z,9.7
2019-04-16T15:54:45.429Z,9.8
2019-04-16T15:55:57.063Z,9.8
2019-04-16T15:57:09.829Z,9.6
2019-04-16T15:58:22.029Z,9.7
2019-04-16T15:59:34.230Z,9.6
2019-04-16T16:00:46.440Z,9.5
2019-04-16T16:01:58.642Z,9.6
2019-04-16T16:03:10.851Z,9.6
2019-04-16T16:04:23.040Z,9.6
2019-04-16T16:05:35.241Z,9.7
2019-04-16T16:06:47.525Z,9.6
2019-04-16T16:07:59.638Z,9.8
2019-04-16T16:09:11.840Z,9.7
2019-04-16T16:10:24.040Z,9.6
2019-04-16T16:11:36.236Z,9.8
2019-04-16T16:12:48.462Z,9.8
2019-04-16T16:14:00.651Z,9.7
2019-04-16T16:15:12.850Z,9.7
2019-04-16T16:16:25.050Z,9.7
2019-04-16T16:17:37.246Z,9.6
2019-04-16T16:18:49.450Z,9.7
2019-04-16T16:20:01.656Z,9.5
2019-04-16T16:21:13.852Z,9.5
2019-04-16T16:22:26.055Z,9.5
2019-04-16T16:23:38.002Z,9.3
2019-04-16T16:24:50.461Z,9.3
2019-04-16T16:26:02.663Z,9.2
2019-04-16T16:27:14.868Z,9.1
2019-04-16T16:28:27.057Z,9
2019-04-16T16:29:39.267Z,9.2
2019-04-16T16:30:51.456Z,9.1
2019-04-16T16:32:03.659Z,9.1
2019-04-16T16:33:15.857Z,9
2019-04-16T16:34:28.057Z,9
2019-04-16T16:35:40.262Z,9
2019-04-16T16:38:04.672Z,9
2019-04-16T16:39:16.870Z,8.9